createdAt,value
2022-11-01T00:02:23.966Z,11.28
2022-11-01T00:04:52.716Z,11.30
2022-11-01T00:07:20.685Z,11.30
2022-11-01T00:09:48.757Z,11.30
2022-11-01T00:12:16.725Z,11.32
2022-11-01T00:14:44.696Z,11.34
2022-11-01T00:17:12.665Z,11.37
2022-11-01T00:19:40.838Z,11.33
2022-11-01T00:22:09.115Z,11.28
2022-11-01T00:24:37.083Z,11.24
2022-11-01T00:27:05.262Z,11.20
2022-11-01T00:29:33.228Z,11.16
2022-11-01T00:32:01.296Z,11.11
2022-11-01T00:34:29.267Z,11.09
2022-11-01T00:36:57.338Z,11.05
2022-11-01T00:39:30.392Z,11.01
2022-11-01T00:41:59.831Z,11.02
2022-11-01T00:44:27.903Z,11.06
2022-11-01T00:46:55.973Z,11.04
2022-11-01T00:49:24.351Z,11.01
2022-11-01T00:51:52.513Z,11.00
2022-11-01T00:54:20.509Z,10.93
2022-11-01T00:56:48.497Z,10.90
2022-11-01T00:59:16.534Z,10.91
2022-11-01T01:01:44.589Z,10.87
2022-11-01T01:04:12.780Z,10.85
2022-11-01T01:06:41.670Z,10.82
2022-11-01T01:09:11.542Z,10.77
2022-11-01T01:11:39.553Z,10.76
2022-11-01T01:14:07.522Z,10.73
2022-11-01T01:16:35.575Z,10.79
2022-11-01T01:19:05.815Z,10.81
2022-11-01T01:21:33.887Z,10.80
2022-11-01T01:24:01.857Z,10.79
2022-11-01T01:26:29.824Z,10.78
2022-11-01T01:28:57.793Z,10.80
2022-11-01T01:31:25.762Z,10.81
2022-11-01T01:33:53.834Z,10.85
2022-11-01T01:36:21.906Z,10.90
2022-11-01T01:38:53.766Z,10.88
2022-11-01T01:41:40.576Z,10.82
2022-11-01T01:44:46.639Z,10.79
2022-11-01T01:47:17.269Z,10.74
2022-11-01T01:49:47.458Z,10.71
2022-11-01T01:52:15.973Z,10.68
2022-11-01T01:54:44.043Z,10.65
2022-11-01T01:57:12.719Z,10.67
2022-11-01T01:59:41.200Z,10.63
2022-11-01T02:02:09.908Z,10.63
2022-11-01T02:04:42.985Z,10.65
2022-11-01T02:07:11.988Z,10.62
2022-11-01T02:09:40.661Z,10.56
2022-11-01T02:12:11.193Z,10.48
2022-11-01T02:14:42.520Z,10.43
2022-11-01T02:17:23.104Z,10.49
2022-11-01T02:20:12.477Z,10.51
2022-11-01T02:22:58.558Z,10.48
2022-11-01T02:26:01.867Z,10.42
2022-11-01T02:28:53.911Z,10.35
2022-11-01T02:31:30.879Z,10.31
2022-11-01T02:34:07.655Z,10.32
2022-11-01T02:36:48.015Z,10.27
2022-11-01T02:39:16.006Z,10.25
2022-11-01T02:41:56.344Z,10.23
2022-11-01T02:44:31.992Z,10.20
2022-11-01T02:47:02.704Z,10.17
2022-11-01T02:49:54.246Z,10.22
2022-11-01T02:52:26.312Z,10.24
2022-11-01T02:55:03.703Z,10.25
2022-11-01T02:57:39.556Z,10.26
2022-11-01T03:00:22.548Z,10.29
2022-11-01T03:03:13.996Z,10.27
2022-11-01T03:06:00.509Z,10.29
2022-11-01T03:08:39.087Z,10.34
2022-11-01T03:11:19.888Z,10.34
2022-11-01T03:14:12.025Z,10.33
2022-11-01T03:16:44.907Z,10.32
2022-11-01T03:19:15.643Z,10.31
2022-11-01T03:22:16.584Z,10.30
2022-11-01T03:25:31.758Z,10.30
2022-11-01T03:28:04.746Z,10.29
2022-11-01T03:30:35.582Z,10.26
2022-11-01T03:33:05.238Z,10.22
2022-11-01T03:35:38.612Z,10.23
2022-11-01T03:38:16.489Z,10.19
2022-11-01T03:40:52.958Z,10.17
2022-11-01T03:43:25.634Z,10.18
2022-11-01T03:45:56.103Z,10.26
2022-11-01T03:48:26.214Z,10.25
2022-11-01T03:50:57.517Z,10.23
2022-11-01T03:53:26.113Z,10.22
2022-11-01T03:55:56.063Z,10.20
2022-11-01T03:58:42.123Z,10.19
2022-11-01T04:01:12.767Z,10.19
2022-11-01T04:03:42.038Z,10.22
2022-11-01T04:06:10.234Z,10.28
2022-11-01T04:08:38.869Z,10.32
2022-11-01T04:11:08.499Z,10.33
2022-11-01T04:13:39.810Z,10.27
2022-11-01T04:16:29.444Z,10.23
2022-11-01T04:19:16.151Z,10.22
2022-11-01T04:21:44.429Z,10.20
2022-11-01T04:24:21.207Z,10.19
2022-11-01T04:26:49.599Z,10.17
2022-11-01T04:29:17.654Z,10.19
2022-11-01T04:31:45.726Z,10.16
2022-11-01T04:34:13.694Z,10.10
2022-11-01T04:36:41.663Z,10.08
2022-11-01T04:39:09.633Z,10.09
2022-11-01T04:41:37.703Z,10.06
2022-11-01T04:44:05.671Z,10.06
2022-11-01T04:46:33.640Z,10.04
2022-11-01T04:49:01.712Z,10.01
2022-11-01T04:51:30.419Z,10.00
2022-11-01T04:53:59.391Z,9.96
2022-11-01T04:56:27.360Z,9.96
2022-11-01T04:58:55.431Z,9.96
2022-11-01T05:01:23.509Z,9.94
2022-11-01T05:03:52.036Z,9.93
2022-11-01T05:06:20.054Z,9.93
2022-11-01T05:08:48.126Z,9.90
2022-11-01T05:11:16.095Z,9.91
2022-11-01T05:13:44.371Z,9.89
2022-11-01T05:16:20.799Z,9.81
2022-11-01T05:18:49.626Z,9.74
2022-11-01T05:21:17.807Z,9.67
2022-11-01T05:23:48.809Z,9.62
2022-11-01T05:26:16.935Z,9.60
2022-11-01T05:28:45.567Z,9.55
2022-11-01T05:31:13.878Z,9.47
2022-11-01T05:33:42.048Z,9.45
2022-11-01T05:36:10.120Z,9.50
2022-11-01T05:38:38.193Z,9.49
2022-11-01T05:41:06.612Z,9.47
2022-11-01T05:43:34.642Z,9.48
2022-11-01T05:46:07.401Z,9.48
2022-11-01T05:48:35.599Z,9.44
2022-11-01T05:51:03.669Z,9.41
2022-11-01T05:53:31.638Z,9.41
2022-11-01T05:56:00.028Z,9.43
2022-11-01T05:58:30.812Z,9.49
2022-11-01T06:01:00.870Z,9.47
2022-11-01T06:03:29.274Z,9.45
2022-11-01T06:05:57.909Z,9.37
2022-11-01T06:08:26.723Z,9.28
2022-11-01T06:11:03.158Z,9.18
2022-11-01T06:13:31.864Z,9.12
2022-11-01T06:16:01.073Z,9.13
2022-11-01T06:18:29.453Z,9.15
2022-11-01T06:20:58.344Z,9.16
2022-11-01T06:23:26.416Z,9.13
2022-11-01T06:26:02.555Z,9.16
2022-11-01T06:28:31.288Z,9.22
2022-11-01T06:33:37.336Z,9.32
2022-11-01T06:36:06.324Z,9.31
2022-11-01T06:38:35.020Z,9.36
2022-11-01T06:41:03.603Z,9.35
2022-11-01T06:43:31.573Z,9.37
2022-11-01T06:46:01.073Z,9.36
2022-11-01T06:48:30.168Z,9.35
2022-11-01T06:50:58.240Z,9.37
2022-11-01T06:53:26.208Z,9.42
2022-11-01T06:55:54.280Z,9.53
2022-11-01T06:58:22.556Z,9.64
2022-11-01T07:00:50.653Z,9.75
2022-11-01T07:03:18.747Z,9.85
2022-11-01T07:05:49.643Z,9.93
2022-11-01T07:08:17.914Z,10.01
2022-11-01T07:10:45.985Z,10.09
2022-11-01T07:13:14.364Z,10.24
2022-11-01T07:15:42.438Z,10.36
2022-11-01T07:18:10.508Z,10.45
2022-11-01T07:20:42.313Z,10.52
2022-11-01T07:23:13.616Z,10.60
2022-11-01T07:25:42.322Z,10.64
2022-11-01T07:28:10.684Z,10.69
2022-11-01T07:30:39.546Z,10.75
2022-11-01T07:33:07.638Z,10.86
2022-11-01T07:35:36.835Z,10.93
2022-11-01T07:38:08.284Z,10.98
2022-11-01T07:40:40.044Z,11.08
2022-11-01T07:43:08.324Z,11.14
2022-11-01T07:45:36.777Z,11.24
2022-11-01T07:48:10.539Z,11.31
2022-11-01T07:50:40.530Z,11.39
2022-11-01T07:53:14.637Z,11.51
2022-11-01T07:55:43.323Z,11.62
2022-11-01T07:58:12.829Z,11.72
2022-11-01T08:00:42.026Z,11.84
2022-11-01T08:03:16.869Z,11.96
2022-11-01T08:05:46.671Z,12.06
2022-11-01T08:08:16.374Z,12.14
2022-11-01T08:10:44.858Z,12.22
2022-11-01T08:13:17.954Z,12.29
2022-11-01T08:15:47.244Z,12.38
2022-11-01T08:18:16.856Z,12.44
2022-11-01T08:20:45.231Z,12.45
2022-11-01T08:23:13.303Z,12.49
2022-11-01T08:25:41.373Z,12.56
2022-11-01T08:28:15.289Z,12.61
2022-11-01T08:30:45.504Z,12.69
2022-11-01T08:33:14.522Z,12.77
2022-11-01T08:35:49.759Z,12.86
2022-11-01T08:38:19.358Z,12.95
2022-11-01T08:40:48.237Z,13.00
2022-11-01T08:43:17.007Z,13.05
2022-11-01T08:45:45.300Z,13.10
2022-11-01T08:48:13.677Z,13.20
2022-11-01T08:50:42.059Z,13.27
2022-11-01T08:53:13.403Z,13.35
2022-11-01T08:55:42.026Z,13.35
2022-11-01T08:58:10.675Z,13.32
2022-11-01T09:00:38.745Z,13.21
2022-11-01T09:03:07.024Z,13.09
2022-11-01T09:05:35.911Z,13.05
2022-11-01T09:08:04.687Z,13.00
2022-11-01T09:10:33.181Z,12.96
2022-11-01T09:13:02.683Z,12.91
2022-11-01T09:15:31.698Z,12.93
2022-11-01T09:18:05.350Z,13.02
2022-11-01T09:20:33.666Z,13.03
2022-11-01T09:23:01.923Z,12.97
2022-11-01T09:25:30.211Z,12.91
2022-11-01T09:27:58.466Z,12.90
2022-11-01T09:30:26.880Z,12.87
2022-11-01T09:32:54.889Z,12.84
2022-11-01T09:35:22.907Z,12.82
2022-11-01T09:37:58.248Z,12.75
2022-11-01T09:40:36.136Z,12.67
2022-11-01T09:43:09.200Z,12.58
2022-11-01T09:45:37.831Z,12.53
2022-11-01T09:48:07.416Z,12.52
2022-11-01T09:50:38.368Z,12.57
2022-11-01T09:53:29.378Z,12.55
2022-11-01T09:56:10.412Z,12.56
2022-11-01T09:58:50.715Z,12.60
2022-11-01T10:01:46.809Z,12.68
2022-11-01T10:04:30.886Z,12.72
2022-11-01T10:07:06.636Z,12.62
2022-11-01T10:09:42.513Z,12.59
2022-11-01T10:12:22.337Z,12.62
2022-11-01T10:15:03.517Z,12.64
2022-11-01T10:17:40.395Z,12.62
2022-11-01T10:20:12.437Z,12.58
2022-11-01T10:22:44.424Z,12.53
2022-11-01T10:25:28.877Z,12.53
2022-11-01T10:28:20.604Z,12.56
2022-11-01T10:30:51.133Z,12.56
2022-11-01T10:33:32.179Z,12.57
2022-11-01T10:36:10.292Z,12.61
2022-11-01T10:39:16.658Z,12.70
2022-11-01T10:42:07.387Z,12.80
2022-11-01T10:44:42.114Z,12.83
2022-11-01T10:47:16.947Z,12.95
2022-11-01T10:50:09.277Z,13.01
2022-11-01T10:53:12.956Z,13.04
2022-11-01T10:55:51.119Z,13.09
2022-11-01T10:58:38.115Z,13.10
2022-11-01T11:01:10.531Z,13.18
2022-11-01T11:03:41.731Z,13.14
2022-11-01T11:06:12.362Z,13.09
2022-11-01T11:08:44.019Z,13.07
2022-11-01T11:11:15.679Z,13.11
2022-11-01T11:13:48.051Z,13.15
2022-11-01T11:16:38.849Z,13.14
2022-11-01T11:19:22.384Z,13.08
2022-11-01T11:21:54.040Z,13.04
2022-11-01T11:24:25.181Z,13.01
2022-11-01T11:26:56.850Z,12.94
2022-11-01T11:29:31.052Z,12.94
2022-11-01T11:32:00.660Z,12.86
2022-11-01T11:34:32.727Z,12.80
2022-11-01T11:37:03.666Z,12.72
2022-11-01T11:39:37.162Z,12.59
2022-11-01T11:42:12.401Z,12.58
2022-11-01T11:44:44.773Z,12.63
2022-11-01T11:47:24.626Z,12.67
2022-11-01T11:49:54.433Z,12.64
2022-11-01T11:52:28.842Z,12.59
2022-11-01T11:54:58.681Z,12.48
2022-11-01T11:57:30.347Z,12.42
2022-11-01T12:00:05.782Z,12.36
2022-11-01T12:02:42.728Z,12.32
2022-11-01T12:05:19.933Z,12.29
2022-11-01T12:07:58.448Z,12.28
2022-11-01T12:10:40.957Z,12.30
2022-11-01T12:13:24.183Z,12.26
2022-11-01T12:16:16.602Z,12.24
2022-11-01T12:18:52.787Z,12.24
2022-11-01T12:21:27.315Z,12.19
2022-11-01T12:24:01.015Z,12.12
2022-11-01T12:26:32.874Z,12.11
2022-11-01T12:29:18.149Z,12.07
2022-11-01T12:31:48.562Z,12.11
2022-11-01T12:34:26.076Z,12.11
2022-11-01T12:37:00.799Z,12.10
2022-11-01T12:40:09.725Z,12.10
2022-11-01T12:42:45.271Z,12.13
2022-11-01T12:45:25.215Z,12.12
2022-11-01T12:48:40.500Z,12.10
2022-11-01T12:51:35.809Z,12.08
2022-11-01T12:54:14.318Z,12.04
2022-11-01T12:56:42.396Z,12.05
2022-11-01T12:59:20.504Z,12.04
2022-11-01T13:02:17.537Z,12.02
2022-11-01T13:04:59.270Z,12.04
2022-11-01T13:07:42.575Z,12.05
2022-11-01T13:10:28.088Z,11.99
2022-11-01T13:13:19.984Z,11.93
2022-11-01T13:15:54.303Z,11.87
2022-11-01T13:18:33.843Z,11.87
2022-11-01T13:21:20.245Z,11.92
2022-11-01T13:24:01.012Z,11.95
2022-11-01T13:26:55.093Z,11.92
2022-11-01T13:29:23.472Z,11.86
2022-11-01T13:32:07.927Z,11.81
2022-11-01T13:34:56.038Z,11.78
2022-11-01T13:37:37.515Z,11.80
2022-11-01T13:40:06.343Z,11.79
2022-11-01T13:42:46.601Z,11.76
2022-11-01T13:45:20.816Z,11.75
2022-11-01T13:48:11.518Z,11.75
2022-11-01T13:50:51.571Z,11.80
2022-11-01T13:53:25.352Z,11.78
2022-11-01T13:56:02.769Z,11.75
2022-11-01T13:58:32.837Z,11.73
2022-11-01T14:01:35.803Z,11.70
2022-11-01T14:04:19.530Z,11.65
2022-11-01T14:07:15.279Z,11.69
2022-11-01T14:09:56.207Z,11.67
2022-11-01T14:12:38.073Z,11.65
2022-11-01T14:15:13.751Z,11.63
2022-11-01T14:17:56.977Z,11.61
2022-11-01T14:20:31.805Z,11.62
2022-11-01T14:23:28.651Z,11.62
2022-11-01T14:26:21.610Z,11.59
2022-11-01T14:28:56.984Z,11.58
2022-11-01T14:31:28.326Z,11.59
2022-11-01T14:34:00.190Z,11.56
2022-11-01T14:36:34.270Z,11.57
2022-11-01T14:39:18.213Z,11.61
2022-11-01T14:41:53.696Z,11.63
2022-11-01T14:44:31.456Z,11.67
2022-11-01T14:47:05.777Z,11.69
2022-11-01T14:49:42.768Z,11.64
2022-11-01T14:52:23.702Z,11.65
2022-11-01T14:55:14.329Z,11.64
2022-11-01T14:57:43.246Z,11.59
2022-11-01T15:00:32.179Z,11.60
2022-11-01T15:03:02.640Z,11.60
2022-11-01T15:05:31.294Z,11.57
2022-11-01T15:07:59.618Z,11.51
2022-11-01T15:10:28.115Z,11.52
2022-11-01T15:13:01.856Z,11.49
2022-11-01T15:15:35.457Z,11.47
2022-11-01T15:18:14.957Z,11.40
2022-11-01T15:20:48.702Z,11.33
2022-11-01T15:23:28.634Z,11.34
2022-11-01T15:26:00.615Z,11.39
2022-11-01T15:28:39.538Z,11.41
2022-11-01T15:31:10.156Z,11.43
2022-11-01T15:33:38.446Z,11.41
2022-11-01T15:36:18.804Z,11.37
2022-11-01T15:38:56.485Z,11.34
2022-11-01T15:41:30.891Z,11.39
2022-11-01T15:44:07.907Z,11.38
2022-11-01T15:46:42.061Z,11.38
2022-11-01T15:49:16.624Z,11.42
2022-11-01T15:52:09.391Z,11.47
2022-11-01T15:54:45.839Z,11.48
2022-11-01T15:57:28.727Z,11.51
2022-11-01T16:00:19.309Z,11.53
2022-11-01T16:03:16.942Z,11.55
2022-11-01T16:06:00.986Z,11.54
2022-11-01T16:08:48.089Z,11.51
2022-11-01T16:11:21.090Z,11.52
2022-11-01T16:13:56.330Z,11.57
2022-11-01T16:16:24.402Z,11.57
2022-11-01T16:18:55.915Z,11.54
2022-11-01T16:21:30.928Z,11.57
2022-11-01T16:24:04.015Z,11.58
2022-11-01T16:27:06.321Z,11.61
2022-11-01T16:29:43.232Z,11.66
2022-11-01T16:32:35.295Z,11.65
2022-11-01T16:35:35.282Z,11.63
2022-11-01T16:38:22.405Z,11.63
2022-11-01T16:40:56.390Z,11.62
2022-11-01T16:43:29.303Z,11.62
2022-11-01T16:45:59.517Z,11.67
2022-11-01T16:48:36.673Z,11.68
2022-11-01T16:51:05.086Z,11.64
2022-11-01T16:53:33.562Z,11.60
2022-11-01T16:56:35.001Z,11.57
2022-11-01T16:59:07.201Z,11.53
2022-11-01T17:01:36.488Z,11.50
2022-11-01T17:04:06.958Z,11.50
2022-11-01T17:06:39.048Z,11.48
2022-11-01T17:09:14.656Z,11.46
2022-11-01T17:11:50.479Z,11.47
2022-11-01T17:14:22.953Z,11.45
2022-11-01T17:16:53.480Z,11.43
2022-11-01T17:19:31.094Z,11.46
2022-11-01T17:22:03.448Z,11.44
2022-11-01T17:24:34.041Z,11.41
2022-11-01T17:27:06.297Z,11.39
2022-11-01T17:29:35.077Z,11.38
2022-11-01T17:32:10.705Z,11.39
2022-11-01T17:34:39.505Z,11.43
2022-11-01T17:37:15.336Z,11.42
2022-11-01T17:39:43.920Z,11.43
2022-11-01T17:42:12.498Z,11.43
2022-11-01T17:45:01.148Z,11.43
2022-11-01T17:47:29.217Z,11.45
2022-11-01T17:49:57.188Z,11.50
2022-11-01T17:52:25.259Z,11.51
2022-11-01T17:54:53.229Z,11.48
2022-11-01T17:57:21.196Z,11.48
2022-11-01T17:59:49.268Z,11.48
2022-11-01T18:02:17.430Z,11.52
2022-11-01T18:04:45.623Z,11.52
2022-11-01T18:07:17.168Z,11.49
2022-11-01T18:09:45.828Z,11.47
2022-11-01T18:12:40.001Z,11.45
2022-11-01T18:15:14.155Z,11.50
2022-11-01T18:18:01.273Z,11.53
2022-11-01T18:20:55.553Z,11.52
2022-11-01T18:23:25.776Z,11.52
2022-11-01T18:25:53.847Z,11.49
2022-11-01T18:28:26.629Z,11.49
2022-11-01T18:31:01.254Z,11.53
2022-11-01T18:33:54.931Z,11.53
2022-11-01T18:36:48.290Z,11.51
2022-11-01T18:39:56.237Z,11.50
2022-11-01T18:42:25.905Z,11.48
2022-11-01T18:45:16.197Z,11.49
2022-11-01T18:47:55.318Z,11.48
2022-11-01T18:50:26.816Z,11.46
2022-11-01T18:53:10.927Z,11.43
2022-11-01T18:55:40.131Z,11.39
2022-11-01T18:58:22.328Z,11.39
2022-11-01T19:01:23.037Z,11.35
2022-11-01T19:04:21.348Z,11.30
2022-11-01T19:06:51.498Z,11.27
2022-11-01T19:09:30.127Z,11.24
2022-11-01T19:12:13.327Z,11.24
2022-11-01T19:14:43.721Z,11.26
2022-11-01T19:17:38.186Z,11.20
2022-11-01T19:20:40.908Z,11.14
2022-11-01T19:23:15.898Z,11.11
2022-11-01T19:25:45.559Z,11.09
2022-11-01T19:28:37.380Z,11.13
2022-11-01T19:31:15.383Z,11.12
2022-11-01T19:33:47.012Z,11.09
2022-11-01T19:36:19.860Z,11.05
2022-11-01T19:38:48.986Z,11.03
2022-11-01T19:41:29.685Z,11.02
2022-11-01T19:44:02.159Z,11.04
2022-11-01T19:46:30.435Z,11.02
2022-11-01T19:48:58.404Z,10.98
2022-11-01T19:51:26.890Z,10.97
2022-11-01T19:53:54.955Z,10.95
2022-11-01T19:56:31.323Z,10.96
2022-11-01T19:59:03.081Z,10.97
2022-11-01T20:01:41.013Z,10.92
2022-11-01T20:04:28.007Z,10.88
2022-11-01T20:07:01.471Z,10.85
2022-11-01T20:09:35.918Z,10.90
2022-11-01T20:12:04.698Z,10.88
2022-11-01T20:14:34.516Z,10.85
2022-11-01T20:17:02.998Z,10.85
2022-11-01T20:19:34.244Z,10.85
2022-11-01T20:22:02.838Z,10.87
2022-11-01T20:24:31.414Z,10.88
2022-11-01T20:27:01.017Z,10.83
2022-11-01T20:29:29.994Z,10.80
2022-11-01T20:31:58.286Z,10.78
2022-11-01T20:34:27.586Z,10.79
2022-11-01T20:37:27.119Z,10.84
2022-11-01T20:39:43.902Z,10.83
2022-11-01T20:42:11.871Z,10.80
2022-11-01T20:44:39.839Z,10.77
2022-11-01T20:47:07.811Z,10.74
2022-11-01T20:49:36.188Z,10.76
2022-11-01T20:52:33.914Z,10.76
2022-11-01T20:54:54.040Z,10.74
2022-11-01T20:57:28.146Z,10.72
2022-11-01T20:59:57.350Z,10.69
2022-11-01T21:02:25.760Z,10.69
2022-11-01T21:05:02.607Z,10.70
2022-11-01T21:07:33.660Z,10.66
2022-11-01T21:10:01.616Z,10.63
2022-11-01T21:12:45.354Z,10.60
2022-11-01T21:15:39.128Z,10.59
2022-11-01T21:18:07.876Z,10.62
2022-11-01T21:20:40.496Z,10.63
2022-11-01T21:23:32.448Z,10.58
2022-11-01T21:26:02.545Z,10.52
2022-11-01T21:28:53.707Z,10.50
2022-11-01T21:31:37.805Z,10.51
2022-11-01T21:34:10.228Z,10.49
2022-11-01T21:36:43.470Z,10.45
2022-11-01T21:39:33.188Z,10.44
2022-11-01T21:42:19.344Z,10.43
2022-11-01T21:44:47.313Z,10.45
2022-11-01T21:47:21.431Z,10.48
2022-11-01T21:49:50.113Z,10.47
2022-11-01T21:52:21.359Z,10.45
2022-11-01T21:54:49.945Z,10.44
2022-11-01T21:57:18.456Z,10.48
2022-11-01T21:59:46.803Z,10.49
2022-11-01T22:02:16.068Z,10.48
2022-11-01T22:04:45.277Z,10.48
2022-11-01T22:07:13.271Z,10.50
2022-11-01T22:09:41.340Z,10.54
2022-11-01T22:12:09.410Z,10.55
2022-11-01T22:14:37.790Z,10.55
2022-11-01T22:17:05.860Z,10.57
2022-11-01T22:19:33.934Z,10.59
2022-11-01T22:22:02.215Z,10.64
2022-11-01T22:24:31.203Z,10.66
2022-11-01T22:26:59.374Z,10.62
2022-11-01T22:29:27.347Z,10.62
2022-11-01T22:31:55.414Z,10.62
2022-11-01T22:34:23.508Z,10.67
2022-11-01T22:36:51.663Z,10.69
2022-11-01T22:39:22.905Z,10.65
2022-11-01T22:41:51.495Z,10.63
2022-11-01T22:44:26.325Z,10.64
2022-11-01T22:46:59.011Z,10.68
2022-11-01T22:49:42.122Z,10.71
2022-11-01T22:52:31.493Z,10.70
2022-11-01T22:55:23.627Z,10.71
2022-11-01T22:57:59.992Z,10.73
2022-11-01T23:00:32.469Z,10.77
2022-11-01T23:03:00.634Z,10.80
2022-11-01T23:05:29.123Z,10.81
2022-11-01T23:07:59.959Z,10.82
2022-11-01T23:10:33.971Z,10.84
2022-11-01T23:13:51.404Z,10.90
2022-11-01T23:16:44.151Z,10.92
2022-11-01T23:19:13.654Z,10.93
2022-11-01T23:21:41.928Z,10.94
2022-11-01T23:24:09.899Z,10.95
2022-11-01T23:26:37.970Z,10.98
2022-11-01T23:29:06.143Z,11.00
2022-11-01T23:31:34.130Z,10.99
2022-11-01T23:34:02.081Z,11.00
2022-11-01T23:36:33.430Z,11.00
2022-11-01T23:39:12.238Z,11.01
2022-11-01T23:41:45.854Z,11.02
2022-11-01T23:44:22.737Z,11.01
2022-11-01T23:46:51.320Z,11.01
2022-11-01T23:49:23.722Z,11.01
2022-11-01T23:51:52.669Z,10.99
2022-11-01T23:54:27.408Z,10.98
2022-11-01T23:56:56.079Z,10.99
2022-11-01T23:59:24.168Z,10.97
